createdAt,value
2019-02-18T00:01:41.635Z,13.30
2019-02-18T00:04:10.793Z,13.28
2019-02-18T00:06:39.924Z,13.20
2019-02-18T00:09:08.963Z,13.18
2019-02-18T00:11:38.046Z,13.16
2019-02-18T00:14:07.035Z,13.12
2019-02-18T00:16:36.113Z,13.08
2019-02-18T00:19:05.183Z,13.03
2019-02-18T00:21:34.275Z,12.98
2019-02-18T00:24:03.399Z,12.95
2019-02-18T00:26:32.486Z,12.89
2019-02-18T00:29:01.537Z,12.86
2019-02-18T00:31:30.659Z,12.82
2019-02-18T00:33:59.678Z,12.76
2019-02-18T00:36:28.814Z,12.76
2019-02-18T00:38:58.411Z,12.72
2019-02-18T00:41:27.483Z,12.65
2019-02-18T00:43:56.595Z,12.64
2019-02-18T00:46:25.702Z,12.60
2019-02-18T00:48:54.769Z,12.54
2019-02-18T00:51:23.790Z,12.47
2019-02-18T00:53:52.853Z,12.45
2019-02-18T00:56:21.924Z,12.37
2019-02-18T00:58:51.044Z,12.34
2019-02-18T01:01:20.093Z,12.32
2019-02-18T01:03:49.142Z,12.33
2019-02-18T01:06:18.239Z,12.33
2019-02-18T01:08:47.313Z,12.27
2019-02-18T01:11:16.381Z,12.23
2019-02-18T01:13:45.521Z,12.19
2019-02-18T01:16:14.595Z,12.15
2019-02-18T01:18:43.709Z,12.11
2019-02-18T01:21:12.777Z,12.05
2019-02-18T01:23:41.947Z,11.99
2019-02-18T01:26:11.013Z,11.90
2019-02-18T01:28:40.095Z,11.84
2019-02-18T01:31:09.146Z,11.79
2019-02-18T01:33:38.258Z,11.77
2019-02-18T01:36:08.979Z,11.73
2019-02-18T01:38:37.989Z,11.71
2019-02-18T01:41:07.049Z,11.70
2019-02-18T01:43:36.174Z,11.65
2019-02-18T01:46:05.206Z,11.62
2019-02-18T01:48:34.233Z,11.60
2019-02-18T01:51:03.250Z,11.55
2019-02-18T01:53:32.389Z,11.52
2019-02-18T01:56:01.448Z,11.48
2019-02-18T01:58:30.512Z,11.44
2019-02-18T02:00:59.539Z,11.39
2019-02-18T02:03:28.589Z,11.37
2019-02-18T02:05:57.504Z,11.31
2019-02-18T02:08:26.558Z,11.29
2019-02-18T02:10:55.547Z,11.25
2019-02-18T02:13:29.114Z,11.19
2019-02-18T02:15:58.919Z,11.13
2019-02-18T02:18:28.257Z,11.09
2019-02-18T02:20:57.303Z,11.07
2019-02-18T02:23:26.326Z,11.03
2019-02-18T02:25:55.280Z,10.99
2019-02-18T02:28:24.350Z,10.95
2019-02-18T02:30:53.373Z,10.93
2019-02-18T02:33:22.412Z,10.91
2019-02-18T02:35:51.497Z,10.88
2019-02-18T02:38:20.510Z,10.84
2019-02-18T02:40:49.562Z,10.82
2019-02-18T02:43:18.573Z,10.79
2019-02-18T02:45:47.642Z,10.76
2019-02-18T02:48:16.629Z,10.73
2019-02-18T02:50:45.780Z,10.69
2019-02-18T02:53:14.653Z,10.67
2019-02-18T02:55:43.653Z,10.65
2019-02-18T02:58:12.645Z,10.63
2019-02-18T03:00:41.749Z,10.56
2019-02-18T03:03:10.749Z,10.55
2019-02-18T03:05:39.795Z,10.52
2019-02-18T03:08:19.852Z,10.51
2019-02-18T03:10:39.669Z,10.48
2019-02-18T03:13:08.681Z,10.47
2019-02-18T03:15:37.782Z,10.44
2019-02-18T03:18:06.798Z,10.41
2019-02-18T03:20:35.843Z,10.39
2019-02-18T03:23:04.866Z,10.33
2019-02-18T03:25:33.896Z,10.25
2019-02-18T03:28:10.522Z,10.19
2019-02-18T03:30:48.595Z,10.18
2019-02-18T03:33:20.825Z,10.16
2019-02-18T03:35:50.183Z,10.14
2019-02-18T03:38:30.876Z,10.12
2019-02-18T03:40:50.112Z,10.13
2019-02-18T03:43:19.175Z,10.10
2019-02-18T03:45:48.279Z,10.08
2019-02-18T03:48:17.321Z,10.08
2019-02-18T03:50:46.486Z,10.06
2019-02-18T03:53:15.487Z,10.00
2019-02-18T03:55:44.499Z,9.96
2019-02-18T03:58:13.508Z,9.94
2019-02-18T04:00:42.541Z,9.93
2019-02-18T04:03:12.299Z,9.89
2019-02-18T04:05:41.311Z,9.87
2019-02-18T04:08:10.301Z,9.85
2019-02-18T04:10:39.361Z,9.83
2019-02-18T04:13:08.398Z,9.83
2019-02-18T04:15:37.457Z,9.79
2019-02-18T04:18:06.436Z,9.75
2019-02-18T04:20:35.552Z,9.72
2019-02-18T04:23:04.600Z,9.68
2019-02-18T04:25:33.658Z,9.64
2019-02-18T04:28:02.705Z,9.63
2019-02-18T04:30:31.709Z,9.58
2019-02-18T04:33:00.756Z,9.58
2019-02-18T04:35:29.751Z,9.59
2019-02-18T04:37:58.772Z,9.55
2019-02-18T04:40:27.739Z,9.54
2019-02-18T04:42:56.771Z,9.53
2019-02-18T04:45:25.817Z,9.51
2019-02-18T04:47:54.859Z,9.50
2019-02-18T04:50:23.916Z,9.50
2019-02-18T04:52:52.930Z,9.49
2019-02-18T04:55:21.943Z,9.48
2019-02-18T04:57:50.957Z,9.47
2019-02-18T05:00:19.987Z,9.45
2019-02-18T05:02:49.035Z,9.44
2019-02-18T05:05:18.041Z,9.42
2019-02-18T05:07:47.067Z,9.41
2019-02-18T05:10:16.134Z,9.41
2019-02-18T05:12:45.187Z,9.38
2019-02-18T05:15:14.246Z,9.36
2019-02-18T05:17:43.304Z,9.35
2019-02-18T05:20:12.339Z,9.33
2019-02-18T05:22:41.334Z,9.31
2019-02-18T05:25:12.830Z,9.30
2019-02-18T05:27:41.112Z,9.27
2019-02-18T05:30:10.216Z,9.25
2019-02-18T05:32:39.208Z,9.24
2019-02-18T05:35:08.636Z,9.21
2019-02-18T05:37:37.662Z,9.21
2019-02-18T05:40:06.657Z,9.19
2019-02-18T05:42:35.664Z,9.19
2019-02-18T05:45:04.700Z,9.16
2019-02-18T05:47:33.740Z,9.15
2019-02-18T05:50:02.783Z,9.13
2019-02-18T05:52:31.808Z,9.13
2019-02-18T05:55:00.820Z,9.12
2019-02-18T05:57:29.806Z,9.10
2019-02-18T05:59:58.870Z,9.10
2019-02-18T06:02:27.858Z,9.07
2019-02-18T06:04:56.881Z,9.06
2019-02-18T06:07:25.869Z,9.02
2019-02-18T06:09:54.909Z,9.00
2019-02-18T06:12:23.900Z,9.00
2019-02-18T06:14:53.005Z,8.97
2019-02-18T06:17:22.075Z,8.98
2019-02-18T06:19:51.198Z,8.95
2019-02-18T06:22:20.234Z,8.96
2019-02-18T06:24:49.288Z,8.94
2019-02-18T06:27:19.088Z,8.91
2019-02-18T06:29:48.231Z,8.90
2019-02-18T06:32:17.255Z,8.89
2019-02-18T06:34:46.292Z,8.89
2019-02-18T06:37:15.366Z,8.87
2019-02-18T06:39:44.779Z,8.87
2019-02-18T06:42:13.831Z,8.89
2019-02-18T06:44:55.098Z,8.86
2019-02-18T06:47:28.443Z,8.87
2019-02-18T06:49:57.469Z,8.86
2019-02-18T06:52:26.515Z,8.86
2019-02-18T06:54:55.557Z,8.87
2019-02-18T06:57:37.352Z,8.94
2019-02-18T07:00:22.528Z,8.95
2019-02-18T07:03:08.708Z,8.97
2019-02-18T07:06:08.677Z,8.99
2019-02-18T07:08:59.811Z,9.02
2019-02-18T07:11:32.926Z,9.06
2019-02-18T07:14:01.982Z,9.07
2019-02-18T07:16:31.091Z,9.13
2019-02-18T07:19:00.148Z,9.16
2019-02-18T07:21:29.257Z,9.21
2019-02-18T07:23:58.295Z,9.25
2019-02-18T07:26:27.365Z,9.43
2019-02-18T07:28:56.421Z,9.92
2019-02-18T07:31:25.468Z,10.62
2019-02-18T07:33:54.542Z,11.37
2019-02-18T07:36:24.763Z,12.11
2019-02-18T07:38:53.769Z,12.83
2019-02-18T07:41:22.822Z,13.53
2019-02-18T07:43:51.871Z,14.21
2019-02-18T07:46:21.073Z,14.83
2019-02-18T07:48:50.067Z,15.47
2019-02-18T07:51:19.172Z,16.07
2019-02-18T07:53:48.255Z,16.63
2019-02-18T07:56:17.353Z,17.16
2019-02-18T07:58:46.423Z,17.74
2019-02-18T08:01:15.491Z,18.31
2019-02-18T08:03:44.563Z,18.80
2019-02-18T08:06:13.727Z,19.31
2019-02-18T08:08:42.800Z,19.78
2019-02-18T08:11:11.905Z,20.32
2019-02-18T08:13:40.910Z,20.82
2019-02-18T08:16:10.042Z,21.29
2019-02-18T08:18:39.243Z,21.76
2019-02-18T08:21:08.355Z,22.19
2019-02-18T08:23:37.389Z,22.68
2019-02-18T08:26:06.749Z,23.07
2019-02-18T08:28:35.776Z,23.51
2019-02-18T08:31:04.825Z,23.97
2019-02-18T08:33:33.922Z,24.41
2019-02-18T08:36:03.112Z,24.81
2019-02-18T08:38:32.287Z,25.28
2019-02-18T08:41:01.368Z,25.74
2019-02-18T08:43:30.445Z,26.17
2019-02-18T08:45:59.449Z,26.62
2019-02-18T08:48:28.532Z,27.13
2019-02-18T08:50:57.525Z,27.63
2019-02-18T08:53:26.644Z,28.05
2019-02-18T08:55:55.694Z,28.46
2019-02-18T08:58:24.821Z,28.90
2019-02-18T09:01:02.332Z,29.36
2019-02-18T09:03:24.753Z,29.75
2019-02-18T09:05:53.793Z,30.23
2019-02-18T09:08:22.924Z,30.65
2019-02-18T09:10:51.966Z,31.12
2019-02-18T09:13:20.983Z,31.58
2019-02-18T09:15:59.655Z,32.00
2019-02-18T09:18:20.838Z,32.41
2019-02-18T09:20:49.855Z,32.80
2019-02-18T09:23:28.458Z,33.18
2019-02-18T09:26:00.107Z,33.59
2019-02-18T09:28:29.195Z,34.06
2019-02-18T09:30:58.358Z,34.53
2019-02-18T09:33:27.443Z,34.99
2019-02-18T09:35:56.490Z,35.42
2019-02-18T09:38:25.735Z,35.89
2019-02-18T09:40:54.749Z,36.31
2019-02-18T09:43:23.822Z,36.76
2019-02-18T09:45:52.949Z,37.27
2019-02-18T09:48:22.061Z,37.62
2019-02-18T09:50:51.108Z,37.63
2019-02-18T09:53:20.264Z,37.92
2019-02-18T09:55:49.333Z,38.47
2019-02-18T09:58:18.425Z,38.97
2019-02-18T10:00:47.369Z,39.34
2019-02-18T10:03:16.420Z,39.76
2019-02-18T10:05:45.477Z,40.17
2019-02-18T10:08:14.668Z,40.44
2019-02-18T10:10:43.727Z,40.76
2019-02-18T10:13:12.827Z,41.18
2019-02-18T10:15:41.928Z,41.21
2019-02-18T10:18:11.096Z,41.41
2019-02-18T10:20:40.132Z,41.67
2019-02-18T10:23:09.302Z,42.02
2019-02-18T10:25:38.486Z,42.35
2019-02-18T10:28:07.765Z,42.58
2019-02-18T10:30:36.971Z,42.92
2019-02-18T10:33:06.128Z,43.28
2019-02-18T10:35:35.223Z,43.73
2019-02-18T10:38:04.245Z,43.86
2019-02-18T10:40:33.322Z,43.84
2019-02-18T10:43:02.400Z,43.92
2019-02-18T10:45:31.549Z,43.73
2019-02-18T10:48:00.813Z,43.72
2019-02-18T10:50:32.790Z,43.74
2019-02-18T10:53:02.204Z,44.07
2019-02-18T10:55:31.496Z,44.53
2019-02-18T10:58:00.792Z,44.92
2019-02-18T11:00:30.470Z,45.11
2019-02-18T11:02:59.581Z,45.05
2019-02-18T11:05:28.794Z,45.26
2019-02-18T11:07:58.378Z,45.67
2019-02-18T11:10:27.608Z,46.15
2019-02-18T11:12:56.827Z,46.44
2019-02-18T11:15:26.465Z,46.80
2019-02-18T11:17:55.682Z,46.78
2019-02-18T11:20:24.918Z,47.07
2019-02-18T11:22:53.980Z,47.31
2019-02-18T11:25:23.170Z,47.54
2019-02-18T11:27:52.217Z,47.89
2019-02-18T11:30:21.692Z,47.99
2019-02-18T11:32:50.728Z,48.18
2019-02-18T11:35:19.817Z,48.41
2019-02-18T11:37:48.942Z,48.37
2019-02-18T11:40:18.323Z,48.11
2019-02-18T11:42:47.412Z,47.87
2019-02-18T11:45:16.581Z,47.11
2019-02-18T11:47:45.710Z,46.78
2019-02-18T11:50:14.826Z,47.03
2019-02-18T11:52:44.014Z,47.36
2019-02-18T11:55:13.111Z,47.41
2019-02-18T11:57:42.583Z,47.71
2019-02-18T12:00:12.326Z,47.72
2019-02-18T12:02:41.500Z,47.67
2019-02-18T12:05:10.916Z,46.96
2019-02-18T12:07:40.087Z,46.91
2019-02-18T12:10:09.878Z,47.30
2019-02-18T12:12:39.509Z,47.91
2019-02-18T12:15:10.792Z,48.70
2019-02-18T12:17:40.009Z,49.02
2019-02-18T12:20:12.192Z,49.58
2019-02-18T12:22:41.470Z,50.24
2019-02-18T12:25:10.628Z,50.87
2019-02-18T12:27:40.131Z,50.94
2019-02-18T12:30:10.554Z,51.15
2019-02-18T12:32:39.690Z,51.46
2019-02-18T12:35:08.924Z,51.84
2019-02-18T12:37:38.141Z,51.63
2019-02-18T12:40:07.924Z,50.61
2019-02-18T12:42:37.439Z,49.37
2019-02-18T12:45:06.785Z,48.26
2019-02-18T12:47:35.975Z,47.53
2019-02-18T12:50:05.572Z,46.09
2019-02-18T12:52:34.794Z,43.96
2019-02-18T12:55:04.025Z,41.31
2019-02-18T12:57:33.656Z,38.79
2019-02-18T13:00:02.861Z,36.34
2019-02-18T13:02:32.032Z,34.69
2019-02-18T13:05:01.143Z,33.30
2019-02-18T13:07:30.222Z,32.13
2019-02-18T13:09:59.241Z,31.13
2019-02-18T13:12:28.270Z,30.29
2019-02-18T13:14:57.365Z,29.62
2019-02-18T13:17:26.464Z,29.13
2019-02-18T13:19:55.652Z,28.71
2019-02-18T13:22:24.753Z,28.16
2019-02-18T13:24:53.870Z,27.69
2019-02-18T13:27:22.965Z,27.18
2019-02-18T13:29:52.052Z,26.80
2019-02-18T13:32:21.402Z,26.44
2019-02-18T13:34:50.622Z,26.18
2019-02-18T13:37:19.681Z,26.11
2019-02-18T13:39:48.810Z,26.06
2019-02-18T13:42:17.900Z,25.95
2019-02-18T13:44:47.885Z,25.89
2019-02-18T13:47:16.896Z,25.83
2019-02-18T13:49:46.018Z,25.81
2019-02-18T13:52:15.191Z,25.65
2019-02-18T13:54:44.307Z,25.46
2019-02-18T13:57:13.392Z,25.30
2019-02-18T13:59:42.599Z,25.06
2019-02-18T14:02:11.680Z,24.96
2019-02-18T14:04:40.720Z,24.75
2019-02-18T14:07:09.732Z,24.61
2019-02-18T14:09:38.805Z,24.38
2019-02-18T14:12:15.705Z,24.18
2019-02-18T14:14:38.797Z,24.08
2019-02-18T14:17:07.916Z,23.98
2019-02-18T14:19:37.075Z,23.93
2019-02-18T14:22:08.006Z,23.82
2019-02-18T14:24:37.110Z,23.76
2019-02-18T14:27:06.217Z,23.69
2019-02-18T14:29:35.348Z,23.66
2019-02-18T14:32:04.827Z,23.60
2019-02-18T14:34:34.030Z,23.55
2019-02-18T14:37:03.222Z,23.50
2019-02-18T14:39:32.443Z,23.40
2019-02-18T14:42:01.500Z,23.27
2019-02-18T14:44:30.619Z,23.27
2019-02-18T14:47:00.145Z,23.20
2019-02-18T14:49:29.187Z,23.13
2019-02-18T14:51:58.315Z,23.09
2019-02-18T14:54:27.402Z,23.02
2019-02-18T14:56:56.638Z,22.91
2019-02-18T14:59:25.730Z,22.83
2019-02-18T15:01:54.873Z,22.81
2019-02-18T15:04:23.978Z,22.75
2019-02-18T15:06:53.090Z,22.62
2019-02-18T15:09:22.316Z,22.61
2019-02-18T15:11:51.322Z,22.46
2019-02-18T15:14:20.442Z,22.38
2019-02-18T15:16:49.477Z,22.31
2019-02-18T15:19:18.576Z,22.21
2019-02-18T15:21:47.654Z,22.15
2019-02-18T15:24:16.798Z,22.12
2019-02-18T15:26:45.858Z,22.10
2019-02-18T15:29:14.866Z,22.02
2019-02-18T15:31:43.907Z,21.99
2019-02-18T15:34:13.015Z,21.93
2019-02-18T15:36:42.051Z,21.84
2019-02-18T15:39:11.105Z,21.78
2019-02-18T15:41:40.148Z,21.72
2019-02-18T15:44:09.160Z,21.62
2019-02-18T15:46:38.291Z,21.51
2019-02-18T15:49:07.331Z,21.50
2019-02-18T15:51:36.413Z,21.42
2019-02-18T15:54:05.489Z,21.35
2019-02-18T15:56:34.527Z,21.22
2019-02-18T15:59:03.643Z,21.20
2019-02-18T16:01:32.702Z,21.13
2019-02-18T16:04:01.702Z,21.14
2019-02-18T16:06:30.752Z,21.12
2019-02-18T16:08:59.867Z,21.10
2019-02-18T16:11:28.927Z,21.03
2019-02-18T16:13:57.925Z,20.99
2019-02-18T16:16:27.376Z,20.88
2019-02-18T16:18:56.591Z,20.76
2019-02-18T16:21:25.687Z,20.65
2019-02-18T16:23:54.845Z,20.54
2019-02-18T16:26:23.926Z,20.49
2019-02-18T16:28:52.954Z,20.40
2019-02-18T16:31:22.027Z,20.27
2019-02-18T16:33:51.241Z,20.17
2019-02-18T16:36:20.380Z,20.07
2019-02-18T16:38:49.461Z,19.92
2019-02-18T16:41:18.585Z,19.79
2019-02-18T16:43:47.667Z,19.70
2019-02-18T16:46:17.227Z,19.59
2019-02-18T16:48:46.502Z,19.46
2019-02-18T16:51:15.580Z,19.33
2019-02-18T16:53:44.674Z,19.24
2019-02-18T16:56:13.778Z,19.11
2019-02-18T16:58:42.771Z,19.04
2019-02-18T17:01:11.770Z,18.91
2019-02-18T17:03:40.888Z,18.80
2019-02-18T17:06:09.961Z,18.68
2019-02-18T17:08:39.211Z,18.55
2019-02-18T17:11:08.492Z,18.47
2019-02-18T17:13:37.630Z,18.43
2019-02-18T17:16:06.721Z,18.37
2019-02-18T17:18:36.224Z,18.27
2019-02-18T17:21:05.477Z,18.15
2019-02-18T17:23:34.530Z,18.14
2019-02-18T17:26:03.613Z,18.02
2019-02-18T17:28:32.633Z,17.98
2019-02-18T17:31:01.672Z,17.95
2019-02-18T17:33:31.094Z,17.89
2019-02-18T17:36:00.176Z,17.79
2019-02-18T17:38:29.288Z,17.75
2019-02-18T17:40:58.296Z,17.69
2019-02-18T17:43:27.389Z,17.59
2019-02-18T17:45:56.548Z,17.53
2019-02-18T17:48:26.017Z,17.46
2019-02-18T17:50:55.128Z,17.40
2019-02-18T17:53:24.256Z,17.29
2019-02-18T17:55:53.365Z,17.28
2019-02-18T17:58:22.596Z,17.19
2019-02-18T18:00:53.911Z,17.17
2019-02-18T18:03:23.601Z,17.15
2019-02-18T18:05:52.768Z,17.09
2019-02-18T18:08:21.921Z,16.97
2019-02-18T18:10:50.994Z,16.94
2019-02-18T18:13:25.188Z,16.90
2019-02-18T18:15:51.005Z,16.88
2019-02-18T18:18:20.511Z,16.83
2019-02-18T18:20:49.645Z,16.80
2019-02-18T18:23:18.705Z,16.78
2019-02-18T18:25:47.753Z,16.75
2019-02-18T18:28:16.792Z,16.71
2019-02-18T18:30:45.823Z,16.65
2019-02-18T18:33:15.340Z,16.62
2019-02-18T18:35:44.448Z,16.55
2019-02-18T18:38:13.498Z,16.55
2019-02-18T18:40:42.567Z,16.49
2019-02-18T18:43:11.591Z,16.46
2019-02-18T18:45:40.792Z,16.43
2019-02-18T18:48:10.105Z,16.33
2019-02-18T18:50:39.245Z,16.33
2019-02-18T18:53:08.436Z,16.27
2019-02-18T18:55:37.543Z,16.23
2019-02-18T18:58:06.607Z,16.21
2019-02-18T19:00:35.715Z,16.15
2019-02-18T19:03:05.433Z,16.11
2019-02-18T19:05:34.523Z,16.08
2019-02-18T19:08:03.547Z,16.11
2019-02-18T19:10:32.582Z,16.05
2019-02-18T19:13:01.604Z,15.97
2019-02-18T19:15:30.810Z,15.98
2019-02-18T19:17:59.901Z,15.91
2019-02-18T19:20:29.078Z,15.92
2019-02-18T19:22:58.151Z,15.84
2019-02-18T19:25:27.185Z,15.80
2019-02-18T19:27:56.216Z,15.80
2019-02-18T19:30:26.983Z,15.75
2019-02-18T19:32:56.189Z,15.76
2019-02-18T19:35:25.263Z,15.72
2019-02-18T19:37:54.389Z,15.69
2019-02-18T19:40:23.483Z,15.70
2019-02-18T19:42:52.621Z,15.65
2019-02-18T19:45:22.580Z,15.65
2019-02-18T19:47:51.697Z,15.62
2019-02-18T19:50:20.753Z,15.59
2019-02-18T19:52:49.913Z,15.58
2019-02-18T19:55:18.982Z,15.59
2019-02-18T19:57:48.074Z,15.55
2019-02-18T20:00:17.925Z,15.51
2019-02-18T20:02:47.039Z,15.48
2019-02-18T20:05:16.137Z,15.46
2019-02-18T20:07:45.269Z,15.43
2019-02-18T20:10:14.377Z,15.39
2019-02-18T20:12:43.611Z,15.36
2019-02-18T20:15:13.058Z,15.34
2019-02-18T20:17:42.290Z,15.32
2019-02-18T20:20:12.001Z,15.32
2019-02-18T20:22:41.149Z,15.27
2019-02-18T20:25:10.244Z,15.24
2019-02-18T20:27:39.374Z,15.22
2019-02-18T20:30:08.915Z,15.21
2019-02-18T20:32:38.021Z,15.20
2019-02-18T20:35:07.755Z,15.18
2019-02-18T20:37:37.007Z,15.18
2019-02-18T20:40:06.477Z,15.17
2019-02-18T20:42:35.616Z,15.14
2019-02-18T20:45:04.777Z,15.12
2019-02-18T20:47:33.818Z,15.08
2019-02-18T20:50:02.875Z,15.04
2019-02-18T20:52:31.978Z,15.04
2019-02-18T20:55:01.004Z,15.03
2019-02-18T20:57:30.152Z,15.03
2019-02-18T20:59:59.156Z,15.00
2019-02-18T21:02:28.146Z,15.00
2019-02-18T21:04:57.118Z,15.00
2019-02-18T21:07:26.152Z,14.99
2019-02-18T21:09:55.310Z,14.99
2019-02-18T21:12:24.449Z,14.95
2019-02-18T21:14:53.544Z,14.93
2019-02-18T21:17:22.676Z,14.92
2019-02-18T21:19:51.795Z,14.88
2019-02-18T21:22:20.832Z,14.84
2019-02-18T21:24:49.948Z,14.84
2019-02-18T21:27:18.969Z,14.84
2019-02-18T21:29:48.108Z,14.83
2019-02-18T21:32:17.110Z,14.82
2019-02-18T21:34:46.232Z,14.83
2019-02-18T21:37:15.297Z,14.83
2019-02-18T21:39:44.427Z,14.82
2019-02-18T21:42:13.495Z,14.83
2019-02-18T21:44:42.597Z,14.83
2019-02-18T21:47:11.638Z,14.81
2019-02-18T21:49:40.723Z,14.79
2019-02-18T21:52:09.807Z,14.76
2019-02-18T21:54:38.816Z,14.74
2019-02-18T21:57:07.839Z,14.71
2019-02-18T21:59:37.040Z,14.71
2019-02-18T22:02:06.098Z,14.71
2019-02-18T22:04:35.152Z,14.67
2019-02-18T22:07:10.022Z,14.62
2019-02-18T22:09:39.011Z,14.62
2019-02-18T22:12:08.275Z,14.54
2019-02-18T22:14:37.302Z,14.53
2019-02-18T22:17:06.320Z,14.51
2019-02-18T22:19:35.367Z,14.47
2019-02-18T22:22:04.373Z,14.46
2019-02-18T22:24:33.481Z,14.47
2019-02-18T22:27:02.492Z,14.47
2019-02-18T22:29:31.963Z,14.42
2019-02-18T22:32:00.996Z,14.41
2019-02-18T22:34:29.987Z,14.40
2019-02-18T22:36:58.991Z,14.40
2019-02-18T22:39:28.389Z,14.38
2019-02-18T22:41:57.437Z,14.36
2019-02-18T22:44:27.356Z,14.35
2019-02-18T22:46:56.358Z,14.35
2019-02-18T22:49:25.331Z,14.36
2019-02-18T22:51:54.337Z,14.37
2019-02-18T22:54:23.271Z,14.37
2019-02-18T22:56:54.459Z,14.38
2019-02-18T22:59:23.472Z,14.37
2019-02-18T23:01:52.499Z,14.38
2019-02-18T23:04:21.516Z,14.42
2019-02-18T23:06:50.519Z,14.42
2019-02-18T23:09:19.629Z,14.40
2019-02-18T23:11:48.726Z,14.47
2019-02-18T23:14:17.783Z,14.49
2019-02-18T23:16:46.993Z,14.47
2019-02-18T23:19:15.980Z,14.49
2019-02-18T23:21:44.984Z,14.51
2019-02-18T23:24:14.009Z,14.51
2019-02-18T23:26:43.060Z,14.52
2019-02-18T23:29:12.090Z,14.50
2019-02-18T23:31:41.149Z,14.51
2019-02-18T23:34:10.236Z,14.51
2019-02-18T23:36:39.262Z,14.51
2019-02-18T23:39:08.288Z,14.51
2019-02-18T23:41:37.342Z,14.50
2019-02-18T23:44:06.358Z,14.49
2019-02-18T23:46:35.493Z,14.48
2019-02-18T23:49:04.527Z,14.42
2019-02-18T23:51:33.702Z,14.40
2019-02-18T23:54:02.722Z,14.38
2019-02-18T23:56:31.839Z,14.38
2019-02-18T23:59:00.854Z,14.34
